createdAt,value
2018-02-08T00:00:40.064Z,1021.56
2018-02-08T00:02:01.928Z,1021.57
2018-02-08T00:03:23.604Z,1021.6
2018-02-08T00:04:45.770Z,1021.61
2018-02-08T00:06:07.507Z,1021.6
2018-02-08T00:07:29.381Z,1021.6
2018-02-08T00:08:51.523Z,1021.63
2018-02-08T00:10:13.839Z,1021.65
2018-02-08T00:11:35.298Z,1021.62
2018-02-08T00:12:57.446Z,1021.6
2018-02-08T00:14:19.324Z,1021.6
2018-02-08T00:15:41.275Z,1021.57
2018-02-08T00:17:03.166Z,1021.56
2018-02-08T00:18:25.479Z,1021.59
2018-02-08T00:19:47.345Z,1021.59
2018-02-08T00:21:09.216Z,1021.62
2018-02-08T00:22:31.338Z,1021.58
2018-02-08T00:23:53.191Z,1021.63
2018-02-08T00:25:15.333Z,1021.59
2018-02-08T00:26:37.198Z,1021.6
2018-02-08T00:27:59.362Z,1021.61
2018-02-08T00:29:20.941Z,1021.64
2018-02-08T00:30:42.838Z,1021.62
2018-02-08T00:32:04.980Z,1021.56
2018-02-08T00:33:26.851Z,1021.63
2018-02-08T00:34:48.953Z,1021.62
2018-02-08T00:36:11.061Z,1021.63
2018-02-08T00:37:33.179Z,1021.58
2018-02-08T00:38:54.756Z,1021.59
2018-02-08T00:40:16.885Z,1021.6
2018-02-08T00:41:38.868Z,1021.59
2018-02-08T00:43:00.789Z,1021.59
2018-02-08T00:44:22.174Z,1021.57
2018-02-08T00:45:43.761Z,1021.52
2018-02-08T00:47:05.902Z,1021.53
2018-02-08T00:48:27.504Z,1021.52
2018-02-08T00:49:49.390Z,1021.52
2018-02-08T00:51:11.507Z,1021.52
2018-02-08T00:52:33.356Z,1021.49
2018-02-08T00:53:55.439Z,1021.5
2018-02-08T00:55:17.030Z,1021.53
2018-02-08T00:56:39.122Z,1021.53
2018-02-08T00:58:01.015Z,1021.51
2018-02-08T00:59:22.606Z,1021.5
2018-02-08T01:00:44.719Z,1021.54
2018-02-08T01:02:06.562Z,1021.45
2018-02-08T01:03:28.378Z,1021.41
2018-02-08T01:04:50.053Z,1021.42
2018-02-08T01:06:11.622Z,1021.44
2018-02-08T01:07:33.509Z,1021.42
2018-02-08T01:08:55.565Z,1021.41
2018-02-08T01:10:17.450Z,1021.4
2018-02-08T01:11:39.601Z,1021.39
2018-02-08T01:13:01.207Z,1021.37
2018-02-08T01:14:23.074Z,1021.4
2018-02-08T01:15:44.690Z,1021.38
2018-02-08T01:17:06.274Z,1021.34
2018-02-08T01:18:28.108Z,1021.33
2018-02-08T01:19:49.993Z,1021.35
2018-02-08T01:21:12.217Z,1021.34
2018-02-08T01:22:34.114Z,1021.34
2018-02-08T01:23:55.697Z,1021.38
2018-02-08T01:25:17.578Z,1021.37
2018-02-08T01:26:39.221Z,1021.38
2018-02-08T01:28:00.847Z,1021.37
2018-02-08T01:29:22.433Z,1021.4
2018-02-08T01:30:44.540Z,1021.41
2018-02-08T01:32:06.132Z,1021.43
2018-02-08T01:33:27.710Z,1021.44
2018-02-08T01:34:49.323Z,1021.43
2018-02-08T01:36:11.272Z,1021.45
2018-02-08T01:37:33.124Z,1021.47
2018-02-08T01:38:54.967Z,1021.48
2018-02-08T01:40:17.071Z,1021.48
2018-02-08T01:41:38.495Z,1021.51
2018-02-08T01:43:00.329Z,1021.52
2018-02-08T01:44:22.436Z,1021.51
2018-02-08T01:45:44.545Z,1021.53
2018-02-08T01:47:06.644Z,1021.5
2018-02-08T01:48:28.769Z,1021.49
2018-02-08T01:49:50.117Z,1021.52
2018-02-08T01:51:11.996Z,1021.47
2018-02-08T01:52:33.855Z,1021.42
2018-02-08T01:53:56.093Z,1021.42
2018-02-08T01:55:17.667Z,1021.39
2018-02-08T01:56:39.355Z,1021.4
2018-02-08T01:58:01.325Z,1021.4
2018-02-08T01:59:23.187Z,1021.4
2018-02-08T02:00:45.073Z,1021.44
2018-02-08T02:02:07.175Z,1021.41
2018-02-08T02:03:29.040Z,1021.4
2018-02-08T02:04:50.891Z,1021.41
2018-02-08T02:06:13.109Z,1021.39
2018-02-08T02:07:35.216Z,1021.4
2018-02-08T02:08:57.335Z,1021.41
2018-02-08T02:10:18.904Z,1021.38
2018-02-08T02:11:40.871Z,1021.44
2018-02-08T02:13:02.353Z,1021.36
2018-02-08T02:14:24.465Z,1021.4
2018-02-08T02:15:46.072Z,1021.31
2018-02-08T02:17:08.332Z,1021.35
2018-02-08T02:18:30.301Z,1021.34
2018-02-08T02:19:52.148Z,1021.37
2018-02-08T02:21:14.282Z,1021.4
2018-02-08T02:22:36.741Z,1021.37
2018-02-08T02:23:58.915Z,1021.4
2018-02-08T02:25:20.899Z,1021.38
2018-02-08T02:26:42.510Z,1021.32
2018-02-08T02:28:04.362Z,1021.39
2018-02-08T02:29:25.981Z,1021.39
2018-02-08T02:30:47.563Z,1021.39
2018-02-08T02:32:09.702Z,1021.4
2018-02-08T02:33:31.570Z,1021.42
2018-02-08T02:34:53.541Z,1021.38
2018-02-08T02:36:15.395Z,1021.38
2018-02-08T02:37:37.533Z,1021.39
2018-02-08T02:39:00.019Z,1021.46
2018-02-08T02:40:21.890Z,1021.42
2018-02-08T02:41:43.500Z,1021.43
2018-02-08T02:43:05.414Z,1021.45
2018-02-08T02:44:28.024Z,1021.43
2018-02-08T02:45:50.363Z,1021.39
2018-02-08T02:47:12.220Z,1021.37
2018-02-08T02:48:33.852Z,1021.4
2018-02-08T02:49:55.712Z,1021.42
2018-02-08T02:51:17.616Z,1021.35
2018-02-08T02:52:39.729Z,1021.36
2018-02-08T02:54:01.676Z,1021.35
2018-02-08T02:55:23.585Z,1021.4
2018-02-08T02:56:45.728Z,1021.43
2018-02-08T02:58:07.325Z,1021.43
2018-02-08T02:59:28.903Z,1021.44
2018-02-08T03:00:51.285Z,1021.45
2018-02-08T03:02:13.153Z,1021.44
2018-02-08T03:03:35.140Z,1021.48
2018-02-08T03:04:57.256Z,1021.46
2018-02-08T03:06:19.371Z,1021.48
2018-02-08T03:07:40.525Z,1021.49
2018-02-08T03:09:02.571Z,1021.46
2018-02-08T03:10:24.190Z,1021.46
2018-02-08T03:11:46.062Z,1021.47
2018-02-08T03:13:07.514Z,1021.51
2018-02-08T03:14:29.607Z,1021.46
2018-02-08T03:15:51.436Z,1021.48
2018-02-08T03:17:13.098Z,1021.53
2018-02-08T03:18:34.691Z,1021.49
2018-02-08T03:19:56.374Z,1021.51
2018-02-08T03:21:18.215Z,1021.51
2018-02-08T03:22:40.376Z,1021.55
2018-02-08T03:24:01.983Z,1021.55
2018-02-08T03:25:24.279Z,1021.58
2018-02-08T03:26:45.877Z,1021.59
2018-02-08T03:28:07.109Z,1021.57
2018-02-08T03:29:28.689Z,1021.55
2018-02-08T03:30:50.539Z,1021.54
2018-02-08T03:32:12.390Z,1021.57
2018-02-08T03:33:34.004Z,1021.6
2018-02-08T03:34:55.601Z,1021.56
2018-02-08T03:36:17.304Z,1021.62
2018-02-08T03:37:39.132Z,1021.65
2018-02-08T03:39:01.699Z,1021.62
2018-02-08T03:40:23.046Z,1021.62
2018-02-08T03:41:44.904Z,1021.65
2018-02-08T03:43:06.512Z,1021.62
2018-02-08T03:44:28.642Z,1021.62
2018-02-08T03:45:50.761Z,1021.63
2018-02-08T03:47:12.209Z,1021.61
2018-02-08T03:48:34.053Z,1021.63
2018-02-08T03:49:56.485Z,1021.65
2018-02-08T03:51:18.069Z,1021.61
2018-02-08T03:52:39.973Z,1021.61
2018-02-08T03:54:02.071Z,1021.63
2018-02-08T03:55:23.409Z,1021.65
2018-02-08T03:56:45.264Z,1021.61
2018-02-08T03:58:06.594Z,1021.6
2018-02-08T03:59:28.710Z,1021.61
2018-02-08T04:00:50.860Z,1021.58
2018-02-08T04:02:12.742Z,1021.55
2018-02-08T04:03:34.387Z,1021.59
2018-02-08T04:04:55.604Z,1021.59
2018-02-08T04:06:17.542Z,1021.58
2018-02-08T04:07:39.158Z,1021.58
2018-02-08T04:09:01.014Z,1021.58
2018-02-08T04:10:22.615Z,1021.52
2018-02-08T04:11:44.747Z,1021.53
2018-02-08T04:13:06.624Z,1021.55
2018-02-08T04:14:28.735Z,1021.55
2018-02-08T04:15:50.582Z,1021.56
2018-02-08T04:17:12.413Z,1021.59
2018-02-08T04:18:34.324Z,1021.53
2018-02-08T04:19:56.170Z,1021.58
2018-02-08T04:21:17.250Z,1021.57
2018-02-08T04:22:38.877Z,1021.55
2018-02-08T04:24:01.072Z,1021.58
2018-02-08T04:25:22.690Z,1021.54
2018-02-08T04:26:44.882Z,1021.58
2018-02-08T04:28:07.353Z,1021.56
2018-02-08T04:29:28.446Z,1021.56
2018-02-08T04:30:50.278Z,1021.56
2018-02-08T04:32:12.379Z,1021.55
2018-02-08T04:33:34.512Z,1021.54
2018-02-08T04:34:56.101Z,1021.53
2018-02-08T04:36:17.962Z,1021.57
2018-02-08T04:37:40.118Z,1021.59
2018-02-08T04:39:02.246Z,1021.58
2018-02-08T04:40:24.350Z,1021.57
2018-02-08T04:41:46.568Z,1021.58
2018-02-08T04:43:08.439Z,1021.56
2018-02-08T04:44:30.887Z,1021.55
2018-02-08T04:45:52.464Z,1021.55
2018-02-08T04:47:14.609Z,1021.56
2018-02-08T04:48:36.744Z,1021.56
2018-02-08T04:49:58.105Z,1021.55
2018-02-08T04:51:19.434Z,1021.61
2018-02-08T04:52:40.780Z,1021.59
2018-02-08T04:54:02.711Z,1021.6
2018-02-08T04:55:24.829Z,1021.64
2018-02-08T04:56:46.409Z,1021.65
2018-02-08T04:58:08.496Z,1021.64
2018-02-08T04:59:30.359Z,1021.63
2018-02-08T05:00:52.786Z,1021.63
2018-02-08T05:02:14.905Z,1021.61
2018-02-08T05:03:36.501Z,1021.63
2018-02-08T05:04:58.621Z,1021.61
2018-02-08T05:06:20.721Z,1021.65
2018-02-08T05:07:42.310Z,1021.67
2018-02-08T05:09:04.518Z,1021.65
2018-02-08T05:10:26.352Z,1021.72
2018-02-08T05:11:47.942Z,1021.71
2018-02-08T05:13:09.553Z,1021.71
2018-02-08T05:14:30.880Z,1021.7
2018-02-08T05:15:52.218Z,1021.64
2018-02-08T05:17:14.104Z,1021.68
2018-02-08T05:18:35.570Z,1021.72
2018-02-08T05:19:57.378Z,1021.67
2018-02-08T05:21:19.212Z,1021.74
2018-02-08T05:22:41.396Z,1021.72
2018-02-08T05:24:03.499Z,1021.76
2018-02-08T05:25:25.356Z,1021.72
2018-02-08T05:26:47.197Z,1021.73
2018-02-08T05:28:09.333Z,1021.73
2018-02-08T05:29:31.471Z,1021.73
2018-02-08T05:30:53.448Z,1021.75
2018-02-08T05:32:15.070Z,1021.75
2018-02-08T05:33:37.187Z,1021.76
2018-02-08T05:34:59.142Z,1021.72
2018-02-08T05:36:21.017Z,1021.72
2018-02-08T05:37:42.909Z,1021.73
2018-02-08T05:39:05.092Z,1021.75
2018-02-08T05:40:26.734Z,1021.75
2018-02-08T05:41:48.852Z,1021.76
2018-02-08T05:43:10.715Z,1021.77
2018-02-08T05:44:32.461Z,1021.73
2018-02-08T05:45:54.593Z,1021.83
2018-02-08T05:47:16.256Z,1021.76
2018-02-08T05:48:38.123Z,1021.78
2018-02-08T05:50:00.337Z,1021.75
2018-02-08T05:51:22.481Z,1021.77
2018-02-08T05:52:44.104Z,1021.76
2018-02-08T05:54:05.731Z,1021.8
2018-02-08T05:55:27.158Z,1021.78
2018-02-08T05:56:48.902Z,1021.78
2018-02-08T05:58:10.511Z,1021.75
2018-02-08T05:59:32.382Z,1021.83
2018-02-08T06:00:54.514Z,1021.81
2018-02-08T06:02:16.352Z,1021.88
2018-02-08T06:03:38.210Z,1021.84
2018-02-08T06:05:00.131Z,1021.85
2018-02-08T06:06:21.756Z,1021.9
2018-02-08T06:07:43.737Z,1021.87
2018-02-08T06:09:05.958Z,1021.83
2018-02-08T06:10:27.781Z,1021.86
2018-02-08T06:11:49.417Z,1021.85
2018-02-08T06:13:11.002Z,1021.87
2018-02-08T06:14:32.874Z,1021.9
2018-02-08T06:15:54.849Z,1021.9
2018-02-08T06:17:16.733Z,1021.92
2018-02-08T06:18:38.141Z,1021.9
2018-02-08T06:20:00.276Z,1021.95
2018-02-08T06:21:22.168Z,1021.89
2018-02-08T06:22:43.790Z,1021.93
2018-02-08T06:24:05.234Z,1021.92
2018-02-08T06:25:27.223Z,1021.92
2018-02-08T06:26:49.162Z,1021.92
2018-02-08T06:28:11.290Z,1021.94
2018-02-08T06:29:33.148Z,1021.96
2018-02-08T06:30:55.271Z,1021.97
2018-02-08T06:32:17.160Z,1021.91
2018-02-08T06:33:39.009Z,1021.96
2018-02-08T06:35:01.126Z,1021.93
2018-02-08T06:36:22.958Z,1021.95
2018-02-08T06:37:44.814Z,1021.96
2018-02-08T06:39:06.950Z,1021.98
2018-02-08T06:40:28.950Z,1022.01
2018-02-08T06:41:50.971Z,1022.06
2018-02-08T06:43:12.302Z,1022
2018-02-08T06:44:34.404Z,1022.02
2018-02-08T06:45:56.516Z,1022.04
2018-02-08T06:47:18.096Z,1022.06
2018-02-08T06:48:39.700Z,1022.04
2018-02-08T06:50:01.834Z,1022.07
2018-02-08T06:51:23.411Z,1022.06
2018-02-08T06:52:45.537Z,1022.1
2018-02-08T06:54:07.448Z,1022.07
2018-02-08T06:55:29.570Z,1022.1
2018-02-08T06:56:50.930Z,1022.04
2018-02-08T06:58:13.109Z,1022.07
2018-02-08T06:59:34.553Z,1022.01
2018-02-08T07:00:56.555Z,1022
2018-02-08T07:02:17.912Z,1022.05
2018-02-08T07:03:39.811Z,1022.03
2018-02-08T07:05:01.600Z,1022.04
2018-02-08T07:06:23.551Z,1022.1
2018-02-08T07:07:45.504Z,1022.11
2018-02-08T07:09:07.636Z,1022.13
2018-02-08T07:10:29.241Z,1022.08
2018-02-08T07:11:50.853Z,1022.08
2018-02-08T07:13:12.752Z,1022.08
2018-02-08T07:14:34.886Z,1022.07
2018-02-08T07:15:56.574Z,1022.11
2018-02-08T07:17:18.701Z,1022.15
2018-02-08T07:18:40.573Z,1022.15
2018-02-08T07:20:02.407Z,1022.21
2018-02-08T07:21:24.280Z,1022.24
2018-02-08T07:22:46.434Z,1022.26
2018-02-08T07:24:07.768Z,1022.25
2018-02-08T07:25:29.610Z,1022.27
2018-02-08T07:26:51.472Z,1022.26
2018-02-08T07:28:13.323Z,1022.28
2018-02-08T07:29:35.492Z,1022.3
2018-02-08T07:30:57.765Z,1022.35
2018-02-08T07:32:19.701Z,1022.33
2018-02-08T07:33:41.346Z,1022.37
2018-02-08T07:35:02.841Z,1022.44
2018-02-08T07:36:24.241Z,1022.41
2018-02-08T07:37:48.443Z,1022.46
2018-02-08T07:39:10.049Z,1022.35
2018-02-08T07:40:31.904Z,1022.38
2018-02-08T07:41:53.252Z,1022.38
2018-02-08T07:43:14.863Z,1022.38
2018-02-08T07:44:36.742Z,1022.39
2018-02-08T07:45:58.352Z,1022.41
2018-02-08T07:47:20.219Z,1022.45
2018-02-08T07:48:41.792Z,1022.45
2018-02-08T07:50:03.661Z,1022.51
2018-02-08T07:51:25.511Z,1022.47
2018-02-08T07:52:46.872Z,1022.48
2018-02-08T07:54:09.011Z,1022.49
2018-02-08T07:55:30.875Z,1022.53
2018-02-08T07:56:53.012Z,1022.52
2018-02-08T07:58:15.168Z,1022.52
2018-02-08T07:59:37.306Z,1022.56
2018-02-08T08:00:59.514Z,1022.53
2018-02-08T08:02:21.728Z,1022.57
2018-02-08T08:03:43.419Z,1022.56
2018-02-08T08:05:05.093Z,1022.56
2018-02-08T08:06:27.335Z,1022.59
2018-02-08T08:07:49.461Z,1022.58
2018-02-08T08:09:11.593Z,1022.63
2018-02-08T08:10:33.472Z,1022.61
2018-02-08T08:11:55.577Z,1022.62
2018-02-08T08:13:17.439Z,1022.64
2018-02-08T08:14:39.563Z,1022.62
2018-02-08T08:16:01.463Z,1022.62
2018-02-08T08:17:23.503Z,1022.69
2018-02-08T08:18:45.619Z,1022.72
2018-02-08T08:20:07.506Z,1022.76
2018-02-08T08:21:29.108Z,1022.81
2018-02-08T08:22:51.261Z,1022.84
2018-02-08T08:24:13.097Z,1022.77
2018-02-08T08:25:34.981Z,1022.83
2018-02-08T08:26:56.882Z,1022.84
2018-02-08T08:28:18.731Z,1022.84
2018-02-08T08:29:40.884Z,1022.85
2018-02-08T08:31:02.820Z,1022.88
2018-02-08T08:32:24.695Z,1022.92
2018-02-08T08:33:46.605Z,1022.94
2018-02-08T08:35:08.870Z,1022.95
2018-02-08T08:36:30.713Z,1022.91
2018-02-08T08:37:52.550Z,1022.93
2018-02-08T08:39:14.512Z,1022.95
2018-02-08T08:40:36.743Z,1022.92
2018-02-08T08:41:58.873Z,1022.88
2018-02-08T08:43:21.073Z,1022.87
2018-02-08T08:44:43.079Z,1022.85
2018-02-08T08:46:04.933Z,1022.83
2018-02-08T08:47:27.056Z,1022.74
2018-02-08T08:48:48.832Z,1022.72
2018-02-08T08:50:10.764Z,1022.73
2018-02-08T08:51:32.641Z,1022.75
2018-02-08T08:52:54.507Z,1022.73
2018-02-08T08:54:16.141Z,1022.72
2018-02-08T08:55:38.563Z,1022.8
2018-02-08T08:57:00.413Z,1022.75
2018-02-08T08:58:22.411Z,1022.75
2018-02-08T08:59:44.686Z,1022.71
2018-02-08T09:01:06.802Z,1022.72
2018-02-08T09:02:28.671Z,1022.71
2018-02-08T09:03:50.790Z,1022.68
2018-02-08T09:05:12.157Z,1022.72
2018-02-08T09:06:34.430Z,1022.7
2018-02-08T09:07:56.598Z,1022.65
2018-02-08T09:09:18.490Z,1022.67
2018-02-08T09:10:40.371Z,1022.65
2018-02-08T09:12:01.822Z,1022.7
2018-02-08T09:13:23.671Z,1022.72
2018-02-08T09:14:45.819Z,1022.73
2018-02-08T09:16:07.720Z,1022.75
2018-02-08T09:17:29.889Z,1022.79
2018-02-08T09:18:51.498Z,1022.81
2018-02-08T09:20:13.080Z,1022.82
2018-02-08T09:21:35.114Z,1022.81
2018-02-08T09:22:56.995Z,1022.9
2018-02-08T09:24:18.872Z,1022.83
2018-02-08T09:25:40.502Z,1022.86
2018-02-08T09:27:02.620Z,1022.89
2018-02-08T09:28:24.212Z,1022.85
2018-02-08T09:29:46.327Z,1022.87
2018-02-08T09:31:08.030Z,1022.91
2018-02-08T09:32:29.652Z,1022.93
2018-02-08T09:33:51.840Z,1023.01
2018-02-08T09:35:13.451Z,1022.94
2018-02-08T09:36:35.607Z,1022.98
2018-02-08T09:37:57.821Z,1023
2018-02-08T09:39:19.843Z,1023.03
2018-02-08T09:40:42.066Z,1023.01
2018-02-08T09:42:04.013Z,1023.05
2018-02-08T09:43:26.000Z,1022.99
2018-02-08T09:44:48.122Z,1022.99
2018-02-08T09:46:10.130Z,1022.97
2018-02-08T09:47:32.113Z,1022.91
2018-02-08T09:48:54.240Z,1022.98
2018-02-08T09:50:16.131Z,1022.95
2018-02-08T09:51:37.980Z,1022.98
2018-02-08T09:52:59.369Z,1022.98
2018-02-08T09:54:21.270Z,1023
2018-02-08T09:55:43.138Z,1023.05
2018-02-08T09:57:05.041Z,1023.04
2018-02-08T09:58:26.965Z,1023.04
2018-02-08T09:59:48.627Z,1023.09
2018-02-08T10:01:09.831Z,1023.05
2018-02-08T10:02:31.510Z,1023.07
2018-02-08T10:03:53.674Z,1023.05
2018-02-08T10:05:15.919Z,1023
2018-02-08T10:06:38.121Z,1022.98
2018-02-08T10:08:00.260Z,1022.97
2018-02-08T10:09:22.235Z,1022.99
2018-02-08T10:10:44.380Z,1022.99
2018-02-08T10:12:05.480Z,1023.03
2018-02-08T10:13:27.394Z,1023
2018-02-08T10:14:48.761Z,1023.01
2018-02-08T10:16:10.623Z,1023.09
2018-02-08T10:17:34.101Z,1023.11
2018-02-08T10:18:55.723Z,1023.13
2018-02-08T10:20:17.597Z,1023.11
2018-02-08T10:21:39.891Z,1023.1
2018-02-08T10:23:02.124Z,1023.09
2018-02-08T10:24:23.741Z,1023.12
2018-02-08T10:25:45.371Z,1023.12
2018-02-08T10:27:07.512Z,1023.12
2018-02-08T10:28:29.647Z,1023.09
2018-02-08T10:29:51.855Z,1023.12
2018-02-08T10:31:13.482Z,1023.11
2018-02-08T10:32:35.623Z,1023.09
2018-02-08T10:33:57.355Z,1023.11
2018-02-08T10:35:19.550Z,1023.11
2018-02-08T10:36:41.185Z,1023.09
2018-02-08T10:38:02.650Z,1023.06
2018-02-08T10:39:24.341Z,1023.07
2018-02-08T10:40:46.326Z,1023.05
2018-02-08T10:42:08.191Z,1023.02
2018-02-08T10:43:30.153Z,1023.02
2018-02-08T10:44:51.852Z,1023.02
2018-02-08T10:46:14.110Z,1022.97
2018-02-08T10:47:35.511Z,1023.04
2018-02-08T10:48:57.358Z,1022.98
2018-02-08T10:50:19.321Z,1023.08
2018-02-08T10:51:41.545Z,1023.03
2018-02-08T10:53:03.196Z,1023.03
2018-02-08T10:54:25.418Z,1023.02
2018-02-08T10:55:47.291Z,1023.02
2018-02-08T10:57:08.911Z,1023.02
2018-02-08T10:58:30.800Z,1022.98
2018-02-08T10:59:52.128Z,1022.99
2018-02-08T11:01:14.282Z,1023
2018-02-08T11:02:36.566Z,1022.95
2018-02-08T11:03:58.198Z,1022.99
2018-02-08T11:05:20.295Z,1023.02
2018-02-08T11:06:41.931Z,1022.97
2018-02-08T11:08:03.802Z,1023.02
2018-02-08T11:09:25.660Z,1023
2018-02-08T11:10:47.623Z,1023.03
2018-02-08T11:12:09.400Z,1023.03
2018-02-08T11:13:31.281Z,1023.02
2018-02-08T11:14:53.494Z,1023.1
2018-02-08T11:16:15.768Z,1023.04
2018-02-08T11:17:37.452Z,1023.05
2018-02-08T11:18:59.080Z,1023
2018-02-08T11:20:20.465Z,1023.01
2018-02-08T11:21:42.646Z,1022.96
2018-02-08T11:23:04.514Z,1022.93
2018-02-08T11:24:26.453Z,1022.88
2018-02-08T11:25:48.341Z,1022.91
2018-02-08T11:27:10.119Z,1022.94
2018-02-08T11:28:31.738Z,1022.91
2018-02-08T11:29:53.335Z,1022.91
2018-02-08T11:31:15.525Z,1022.92
2018-02-08T11:32:37.550Z,1022.9
2018-02-08T11:33:59.141Z,1022.88
2018-02-08T11:35:20.729Z,1022.92
2018-02-08T11:36:42.666Z,1022.89
2018-02-08T11:38:04.516Z,1022.92
2018-02-08T11:39:26.992Z,1022.93
2018-02-08T11:40:48.871Z,1022.9
2018-02-08T11:42:10.884Z,1022.93
2018-02-08T11:43:33.037Z,1022.91
2018-02-08T11:44:55.364Z,1022.9
2018-02-08T11:46:17.300Z,1022.85
2018-02-08T11:47:39.564Z,1022.9
2018-02-08T11:49:01.487Z,1022.9
2018-02-08T11:50:23.415Z,1022.91
2018-02-08T11:51:45.019Z,1022.9
2018-02-08T11:53:06.809Z,1022.92
2018-02-08T11:54:28.249Z,1022.91
2018-02-08T11:55:50.118Z,1022.92
2018-02-08T11:57:11.783Z,1022.86
2018-02-08T11:58:33.641Z,1022.91
2018-02-08T11:59:55.779Z,1022.91
2018-02-08T12:01:17.661Z,1022.91
2018-02-08T12:02:39.274Z,1022.91
2018-02-08T12:04:00.895Z,1022.9
2018-02-08T12:05:22.520Z,1022.86
2018-02-08T12:06:44.385Z,1022.86
2018-02-08T12:08:06.630Z,1022.92
2018-02-08T12:09:28.220Z,1022.88
2018-02-08T12:10:50.122Z,1022.86
2018-02-08T12:12:11.885Z,1022.88
2018-02-08T12:13:33.739Z,1022.84
2018-02-08T12:14:55.068Z,1022.76
2018-02-08T12:16:17.198Z,1022.8
2018-02-08T12:17:39.540Z,1022.77
2018-02-08T12:19:01.643Z,1022.75
2018-02-08T12:20:23.323Z,1022.77
2018-02-08T12:21:45.455Z,1022.72
2018-02-08T12:23:07.521Z,1022.74
2018-02-08T12:24:29.402Z,1022.67
2018-02-08T12:25:51.303Z,1022.67
2018-02-08T12:27:13.271Z,1022.67
2018-02-08T12:28:35.135Z,1022.66
2018-02-08T12:29:56.764Z,1022.67
2018-02-08T12:31:18.892Z,1022.65
2018-02-08T12:32:40.870Z,1022.6
2018-02-08T12:34:02.447Z,1022.55
2018-02-08T12:35:24.581Z,1022.57
2018-02-08T12:36:46.491Z,1022.56
2018-02-08T12:38:08.661Z,1022.53
2018-02-08T12:39:30.781Z,1022.53
2018-02-08T12:40:52.654Z,1022.5
2018-02-08T12:42:14.541Z,1022.44
2018-02-08T12:43:36.523Z,1022.47
2018-02-08T12:44:58.267Z,1022.46
2018-02-08T12:46:19.893Z,1022.42
2018-02-08T12:47:42.026Z,1022.42
2018-02-08T12:49:04.137Z,1022.4
2018-02-08T12:50:26.268Z,1022.34
2018-02-08T12:51:48.412Z,1022.37
2018-02-08T12:53:10.635Z,1022.36
2018-02-08T12:54:32.787Z,1022.34
2018-02-08T12:55:54.800Z,1022.31
2018-02-08T12:57:16.992Z,1022.36
2018-02-08T12:58:38.963Z,1022.33
2018-02-08T13:00:01.831Z,1022.29
2018-02-08T13:01:24.086Z,1022.23
2018-02-08T13:02:46.939Z,1022.23
2018-02-08T13:04:09.336Z,1022.17
2018-02-08T13:05:32.027Z,1022.19
2018-02-08T13:06:54.320Z,1022.16
2018-02-08T13:08:16.413Z,1022.15
2018-02-08T13:09:38.044Z,1022.14
2018-02-08T13:10:59.670Z,1022.12
2018-02-08T13:12:21.570Z,1022.15
2018-02-08T13:13:42.906Z,1022.18
2018-02-08T13:15:05.082Z,1022.16
2018-02-08T13:16:26.432Z,1022.17
2018-02-08T13:17:48.583Z,1022.21
2018-02-08T13:19:10.733Z,1022.18
2018-02-08T13:20:32.762Z,1022.18
2018-02-08T13:21:54.729Z,1022.17
2018-02-08T13:23:17.313Z,1022.15
2018-02-08T13:24:39.173Z,1022.15
2018-02-08T13:26:01.081Z,1022.18
2018-02-08T13:27:23.312Z,1022.15
2018-02-08T13:28:45.156Z,1022.11
2018-02-08T13:30:07.311Z,1022.11
2018-02-08T13:31:28.912Z,1022.09
2018-02-08T13:32:51.270Z,1022.06
2018-02-08T13:34:13.140Z,1022.05
2018-02-08T13:35:34.990Z,1022.01
2018-02-08T13:36:57.003Z,1021.98
2018-02-08T13:38:18.880Z,1022.03
2018-02-08T13:39:41.042Z,1022
2018-02-08T13:41:02.674Z,1022.01
2018-02-08T13:42:24.374Z,1021.95
2018-02-08T13:43:46.251Z,1021.95
2018-02-08T13:45:08.418Z,1021.92
2018-02-08T13:46:30.578Z,1021.91
2018-02-08T13:47:52.291Z,1021.89
2018-02-08T13:49:14.431Z,1021.84
2018-02-08T13:50:36.445Z,1021.82
2018-02-08T13:51:58.667Z,1021.79
2018-02-08T13:53:20.924Z,1021.76
2018-02-08T13:54:42.829Z,1021.8
2018-02-08T13:56:06.048Z,1021.81
2018-02-08T13:57:27.410Z,1021.83
2018-02-08T13:58:49.271Z,1021.78
2018-02-08T14:00:11.392Z,1021.79
2018-02-08T14:01:33.002Z,1021.79
2018-02-08T14:02:55.028Z,1021.71
2018-02-08T14:04:16.888Z,1021.66
2018-02-08T14:05:39.040Z,1021.68
2018-02-08T14:07:01.182Z,1021.69
2018-02-08T14:08:23.041Z,1021.63
2018-02-08T14:09:45.240Z,1021.58
2018-02-08T14:11:06.866Z,1021.6
2018-02-08T14:12:28.472Z,1021.57
2018-02-08T14:13:50.651Z,1021.58
2018-02-08T14:15:12.514Z,1021.56
2018-02-08T14:16:34.403Z,1021.55
2018-02-08T14:17:56.542Z,1021.59
2018-02-08T14:19:18.662Z,1021.57
2018-02-08T14:20:40.795Z,1021.56
2018-02-08T14:22:02.683Z,1021.58
2018-02-08T14:23:24.823Z,1021.62
2018-02-08T14:24:46.721Z,1021.58
2018-02-08T14:26:08.615Z,1021.55
2018-02-08T14:27:30.782Z,1021.51
2018-02-08T14:28:52.394Z,1021.46
2018-02-08T14:30:14.734Z,1021.47
2018-02-08T14:31:36.873Z,1021.5
2018-02-08T14:32:58.495Z,1021.5
2018-02-08T14:34:20.204Z,1021.49
2018-02-08T14:35:42.124Z,1021.56
2018-02-08T14:37:03.763Z,1021.54
2018-02-08T14:38:25.692Z,1021.51
2018-02-08T14:39:47.842Z,1021.47
2018-02-08T14:41:10.042Z,1021.47
2018-02-08T14:42:32.227Z,1021.49
2018-02-08T14:43:54.132Z,1021.46
2018-02-08T14:45:15.915Z,1021.44
2018-02-08T14:46:37.833Z,1021.45
2018-02-08T14:48:00.023Z,1021.46
2018-02-08T14:49:21.978Z,1021.44
2018-02-08T14:50:43.908Z,1021.47
2018-02-08T14:52:06.063Z,1021.46
2018-02-08T14:53:28.191Z,1021.47
2018-02-08T14:54:50.373Z,1021.49
2018-02-08T14:56:12.575Z,1021.48
2018-02-08T14:57:34.960Z,1021.48
2018-02-08T14:58:56.589Z,1021.48
2018-02-08T15:00:18.462Z,1021.47
2018-02-08T15:01:40.183Z,1021.43
2018-02-08T15:03:02.412Z,1021.38
2018-02-08T15:04:24.024Z,1021.38
2018-02-08T15:05:45.918Z,1021.3
2018-02-08T15:07:07.679Z,1021.29
2018-02-08T15:08:29.308Z,1021.26
2018-02-08T15:09:51.482Z,1021.26
2018-02-08T15:11:13.724Z,1021.23
2018-02-08T15:12:36.024Z,1021.25
2018-02-08T15:13:58.168Z,1021.24
2018-02-08T15:15:20.246Z,1021.27
2018-02-08T15:16:42.169Z,1021.28
2018-02-08T15:18:04.339Z,1021.27
2018-02-08T15:19:26.482Z,1021.3
2018-02-08T15:20:48.101Z,1021.31
2018-02-08T15:22:09.454Z,1021.3
2018-02-08T15:23:31.384Z,1021.3
2018-02-08T15:24:53.529Z,1021.31
2018-02-08T15:26:15.661Z,1021.33
2018-02-08T15:27:37.545Z,1021.35
2018-02-08T15:29:00.102Z,1021.41
2018-02-08T15:30:22.330Z,1021.37
2018-02-08T15:31:44.484Z,1021.39
2018-02-08T15:33:06.403Z,1021.39
2018-02-08T15:34:28.544Z,1021.43
2018-02-08T15:35:50.708Z,1021.43
2018-02-08T15:37:12.328Z,1021.51
2018-02-08T15:38:34.193Z,1021.49
2018-02-08T15:39:56.106Z,1021.5
2018-02-08T15:41:17.992Z,1021.52
2018-02-08T15:42:40.151Z,1021.54
2018-02-08T15:44:02.123Z,1021.49
2018-02-08T15:45:24.341Z,1021.52
2018-02-08T15:46:46.558Z,1021.48
2018-02-08T15:48:07.935Z,1021.49
2018-02-08T15:49:30.274Z,1021.5
2018-02-08T15:50:52.425Z,1021.51
2018-02-08T15:52:14.642Z,1021.47
2018-02-08T15:53:36.555Z,1021.55
2018-02-08T15:54:58.506Z,1021.52
2018-02-08T15:56:21.218Z,1021.58
2018-02-08T15:57:43.494Z,1021.58
2018-02-08T15:59:05.483Z,1021.55
2018-02-08T16:00:27.731Z,1021.52
2018-02-08T16:01:49.432Z,1021.49
2018-02-08T16:03:11.481Z,1021.51
2018-02-08T16:04:33.615Z,1021.5
2018-02-08T16:05:55.904Z,1021.5
2018-02-08T16:07:18.064Z,1021.5
2018-02-08T16:08:40.257Z,1021.46
2018-02-08T16:10:02.428Z,1021.47
2018-02-08T16:11:24.642Z,1021.5
2018-02-08T16:12:46.592Z,1021.47
2018-02-08T16:14:08.831Z,1021.45
2018-02-08T16:15:30.461Z,1021.45
2018-02-08T16:16:52.346Z,1021.41
2018-02-08T16:18:14.513Z,1021.41
2018-02-08T16:19:36.502Z,1021.4
2018-02-08T16:20:58.778Z,1021.38
2018-02-08T16:22:20.684Z,1021.32
2018-02-08T16:23:42.852Z,1021.37
2018-02-08T16:25:05.031Z,1021.34
2018-02-08T16:26:27.159Z,1021.36
2018-02-08T16:27:49.352Z,1021.34
2018-02-08T16:29:11.379Z,1021.33
2018-02-08T16:30:33.373Z,1021.31
2018-02-08T16:31:55.360Z,1021.35
2018-02-08T16:33:17.231Z,1021.33
2018-02-08T16:34:39.392Z,1021.37